Terminal Aerodrome Forecast
Issued by NWS Charleston, WV

Current Version | Previous Version | Text Only | Print | Product List | Glossary Off
Versions: 1 2 3 4 5 6 7 8 9 10 11 12 13 14 15 16 17 18 19 20 21 22 23 24

000
FTUS41 KRLX 142056 AAA
TAFPKB
TAF AMD
KPKB 142056Z 1421/1518 VRB04KT P6SM OVC070
     FM150700 00000KT 5SM BR BKN040
     FM151100 00000KT 2SM BR SCT035
     FM151300 00000KT 3SM BR SCT050
     FM151400 VRB04KT P6SM SCT080=

USA.gov is the U.S. government's official web portal to all federal, state and local government web resources and services.